Walton, Illinois
Current Conditions -  °F | °C
As of 3:35 PM on Saturday 20 Dec 2014 (Local Time) from KSQI Reporting Station
Overcast Overcast  
Wind Chill: 29°   Ceiling: 2900
Heat Index: 34°   Visibility: 8mi
Dew Point: 25°   Wind: 6mph
Humidity: 70%   Direction: 150°SSE
Pressure: 30.22"   Gusts: NA
Location:  41.8109°N, 89.4546°W
Report Text: KSQI 202135Z 15005KT 8SM OVC029 01/M04 A3022 RMK AO1
Loading
Personal Weather Stations






























Interactive Weather Map New forecast layout! Learn more

10-Day Weather Forecast

Advertisements
Track Severe Weather on mobile